createdAt,value
2017-12-25T00:01:03.891Z,8.30
2017-12-25T00:03:32.086Z,8.30
2017-12-25T00:05:59.566Z,8.20
2017-12-25T00:08:27.002Z,8.30
2017-12-25T00:10:54.442Z,8.30
2017-12-25T00:13:21.904Z,8.30
2017-12-25T00:15:50.106Z,8.40
2017-12-25T00:18:17.565Z,8.40
2017-12-25T00:20:44.987Z,8.50
2017-12-25T00:23:13.194Z,8.50
2017-12-25T00:25:40.634Z,8.50
2017-12-25T00:28:08.058Z,8.50
2017-12-25T00:30:36.271Z,8.50
2017-12-25T00:33:03.698Z,8.50
2017-12-25T00:35:31.903Z,8.50
2017-12-25T00:37:59.335Z,8.50
2017-12-25T00:40:26.774Z,8.50
2017-12-25T00:42:54.974Z,8.50
2017-12-25T00:45:22.410Z,8.50
2017-12-25T00:47:50.611Z,8.60
2017-12-25T00:50:19.616Z,8.60
2017-12-25T00:52:47.050Z,8.60
2017-12-25T00:55:14.487Z,8.50
2017-12-25T00:57:42.687Z,8.60
2017-12-25T01:00:10.123Z,8.50
2017-12-25T01:02:38.326Z,8.50
2017-12-25T01:05:05.771Z,8.50
2017-12-25T01:07:33.212Z,8.50
2017-12-25T01:10:01.422Z,8.50
2017-12-25T01:12:28.857Z,8.50
2017-12-25T01:14:56.294Z,8.50
2017-12-25T01:17:24.490Z,8.40
2017-12-25T01:19:51.958Z,8.40
2017-12-25T01:22:19.374Z,8.50
2017-12-25T01:24:47.585Z,8.40
2017-12-25T01:27:15.006Z,8.40
2017-12-25T01:29:43.219Z,8.40
2017-12-25T01:32:10.657Z,8.40
2017-12-25T01:34:38.090Z,8.40
2017-12-25T01:37:06.294Z,8.50
2017-12-25T01:39:33.760Z,8.50
2017-12-25T01:42:01.176Z,8.50
2017-12-25T01:44:28.611Z,8.50
2017-12-25T01:47:06.041Z,8.50
2017-12-25T01:49:33.478Z,8.50
2017-12-25T01:52:01.675Z,8.50
2017-12-25T01:54:29.118Z,8.50
2017-12-25T01:57:09.136Z,8.50
2017-12-25T02:02:52.786Z,8.50
2017-12-25T02:05:29.810Z,8.40
2017-12-25T02:08:08.794Z,8.40
2017-12-25T02:10:36.241Z,8.40
2017-12-25T02:13:03.665Z,8.40
2017-12-25T02:15:31.106Z,8.40
2017-12-25T02:17:59.300Z,8.30
2017-12-25T02:20:31.186Z,8.30
2017-12-25T02:22:58.617Z,8.40
2017-12-25T02:25:26.051Z,8.30
2017-12-25T02:27:54.254Z,8.30
2017-12-25T02:30:21.683Z,8.30
2017-12-25T02:32:49.898Z,8.30
2017-12-25T02:35:17.323Z,8.30
2017-12-25T02:37:44.746Z,8.30
2017-12-25T02:40:12.187Z,8.30
2017-12-25T02:42:39.617Z,8.30
2017-12-25T02:45:07.055Z,8.40
2017-12-25T02:47:34.483Z,8.40
2017-12-25T02:50:02.690Z,8.30
2017-12-25T02:52:30.127Z,8.30
2017-12-25T02:54:58.322Z,8.40
2017-12-25T02:57:25.759Z,8.40
2017-12-25T02:59:53.199Z,8.30
2017-12-25T03:02:21.425Z,8.30
2017-12-25T03:04:48.856Z,8.30
2017-12-25T03:07:16.294Z,8.30
2017-12-25T03:09:44.490Z,8.20
2017-12-25T03:12:11.941Z,8.20
2017-12-25T03:14:39.366Z,8.20
2017-12-25T03:17:06.808Z,8.20
2017-12-25T03:19:34.239Z,8.20
2017-12-25T03:22:01.681Z,8.10
2017-12-25T03:24:29.115Z,8.20
2017-12-25T03:26:56.560Z,8.20
2017-12-25T03:29:24.758Z,8.10
2017-12-25T03:31:52.195Z,8.10
2017-12-25T03:34:20.406Z,8.10
2017-12-25T03:36:47.827Z,8.10
2017-12-25T03:39:16.026Z,8.00
2017-12-25T03:41:44.339Z,8.00
2017-12-25T03:44:11.763Z,8.00
2017-12-25T03:46:39.213Z,8.00
2017-12-25T03:49:06.638Z,8.00
2017-12-25T03:51:34.849Z,8.00
2017-12-25T03:54:02.278Z,8.00
2017-12-25T03:56:29.721Z,8.00
2017-12-25T03:58:57.923Z,8.00
2017-12-25T04:01:25.358Z,8.00
2017-12-25T04:03:53.564Z,8.00
2017-12-25T04:06:21.009Z,8.00
2017-12-25T04:08:48.443Z,7.90
2017-12-25T04:11:16.860Z,7.90
2017-12-25T04:13:44.295Z,7.90
2017-12-25T04:16:11.739Z,7.90
2017-12-25T04:18:39.935Z,8.00
2017-12-25T04:21:07.369Z,7.90
2017-12-25T04:23:35.567Z,7.90
2017-12-25T04:26:03.016Z,7.90
2017-12-25T04:28:30.447Z,7.90
2017-12-25T04:30:58.650Z,7.80
2017-12-25T04:33:26.086Z,7.80
2017-12-25T04:35:54.299Z,7.80
2017-12-25T04:38:21.743Z,7.80
2017-12-25T04:40:49.183Z,7.80
2017-12-25T04:43:16.615Z,7.80
2017-12-25T04:45:44.823Z,7.80
2017-12-25T04:48:12.250Z,7.80
2017-12-25T04:50:40.450Z,7.80
2017-12-25T04:53:07.878Z,7.80
2017-12-25T04:55:36.091Z,7.70
2017-12-25T04:58:03.528Z,7.70
2017-12-25T05:00:30.971Z,7.80
2017-12-25T05:02:59.162Z,7.80
2017-12-25T05:05:26.608Z,7.80
2017-12-25T05:07:54.803Z,7.80
2017-12-25T05:10:22.250Z,7.80
2017-12-25T05:12:49.686Z,7.80
2017-12-25T05:15:17.900Z,7.80
2017-12-25T05:17:45.350Z,7.80
2017-12-25T05:20:12.785Z,7.80
2017-12-25T05:22:40.990Z,7.80
2017-12-25T05:25:08.427Z,7.80
2017-12-25T05:27:35.873Z,7.70
2017-12-25T05:30:04.066Z,7.80
2017-12-25T05:32:31.503Z,7.80
2017-12-25T05:34:58.943Z,7.70
2017-12-25T05:37:27.151Z,7.70
2017-12-25T05:39:54.595Z,7.70
2017-12-25T05:42:22.047Z,7.70
2017-12-25T05:44:50.247Z,7.70
2017-12-25T05:47:17.691Z,7.70
2017-12-25T05:49:45.118Z,7.70
2017-12-25T05:52:13.331Z,7.70
2017-12-25T05:54:40.763Z,7.70
2017-12-25T05:57:08.966Z,7.80
2017-12-25T05:59:36.403Z,7.80
2017-12-25T06:02:03.847Z,7.80
2017-12-25T06:04:32.058Z,7.80
2017-12-25T06:06:59.498Z,7.80
2017-12-25T06:09:26.933Z,7.80
2017-12-25T06:11:55.127Z,7.80
2017-12-25T06:14:22.561Z,7.80
2017-12-25T06:16:50.768Z,7.80
2017-12-25T06:19:18.200Z,7.80
2017-12-25T06:21:45.644Z,7.80
2017-12-25T06:24:13.848Z,7.80
2017-12-25T06:26:41.282Z,7.80
2017-12-25T06:29:08.728Z,7.70
2017-12-25T06:31:36.929Z,7.70
2017-12-25T06:34:04.373Z,7.70
2017-12-25T06:36:31.811Z,7.70
2017-12-25T06:39:00.008Z,7.80
2017-12-25T06:41:27.447Z,7.80
2017-12-25T06:43:55.646Z,7.80
2017-12-25T06:46:23.094Z,7.80
2017-12-25T06:48:50.569Z,7.80
2017-12-25T06:51:18.000Z,7.80
2017-12-25T06:53:45.437Z,7.80
2017-12-25T06:56:12.875Z,7.80
2017-12-25T06:58:40.302Z,7.80
2017-12-25T07:01:07.747Z,7.80
2017-12-25T07:03:35.207Z,7.80
2017-12-25T07:06:02.656Z,7.80
2017-12-25T07:08:30.095Z,7.80
2017-12-25T07:10:57.531Z,7.70
2017-12-25T07:13:25.738Z,7.70
2017-12-25T07:15:54.039Z,7.70
2017-12-25T07:18:21.471Z,7.70
2017-12-25T07:20:48.907Z,7.70
2017-12-25T07:23:17.116Z,7.60
2017-12-25T07:25:44.547Z,7.60
2017-12-25T07:28:11.991Z,7.60
2017-12-25T07:30:40.191Z,7.60
2017-12-25T07:33:07.638Z,7.60
2017-12-25T07:35:36.667Z,7.70
2017-12-25T07:38:04.110Z,7.70
2017-12-25T07:40:31.543Z,7.70
2017-12-25T07:42:58.987Z,7.70
2017-12-25T07:45:27.188Z,7.70
2017-12-25T07:47:54.626Z,7.70
2017-12-25T07:50:22.410Z,7.70
2017-12-25T07:52:49.839Z,7.60
2017-12-25T07:55:18.035Z,7.70
2017-12-25T07:57:45.484Z,7.70
2017-12-25T08:00:12.916Z,7.70
2017-12-25T08:02:41.115Z,7.70
2017-12-25T08:05:08.560Z,7.70
2017-12-25T08:07:36.766Z,7.70
2017-12-25T08:10:04.210Z,7.70
2017-12-25T08:12:31.642Z,7.70
2017-12-25T08:14:59.839Z,7.70
2017-12-25T08:17:27.303Z,7.70
2017-12-25T08:19:54.719Z,7.70
2017-12-25T08:22:22.918Z,7.70
2017-12-25T08:24:50.351Z,7.70
2017-12-25T08:27:18.567Z,7.80
2017-12-25T08:29:46.016Z,7.80
2017-12-25T08:32:13.455Z,7.80
2017-12-25T08:34:40.880Z,7.80
2017-12-25T08:37:08.311Z,7.80
2017-12-25T08:39:35.746Z,7.80
2017-12-25T08:42:03.190Z,7.80
2017-12-25T08:44:30.617Z,7.80
2017-12-25T08:46:58.818Z,7.90
2017-12-25T08:49:26.243Z,7.90
2017-12-25T08:51:54.456Z,7.90
2017-12-25T08:54:21.887Z,7.90
2017-12-25T08:56:50.104Z,7.90
2017-12-25T08:59:17.535Z,7.90
2017-12-25T09:01:45.011Z,7.90
2017-12-25T09:04:12.419Z,7.80
2017-12-25T09:06:39.849Z,7.90
2017-12-25T09:09:07.291Z,7.80
2017-12-25T09:11:34.726Z,7.80
2017-12-25T09:14:02.163Z,7.90
2017-12-25T09:16:29.591Z,7.90
2017-12-25T09:18:57.035Z,7.80
2017-12-25T09:21:24.479Z,7.90
2017-12-25T09:23:51.923Z,7.90
2017-12-25T09:26:19.355Z,7.90
2017-12-25T09:28:46.803Z,8.00
2017-12-25T09:31:14.991Z,8.00
2017-12-25T09:33:42.435Z,8.00
2017-12-25T09:36:09.899Z,8.00
2017-12-25T09:38:37.331Z,8.00
2017-12-25T09:41:05.523Z,8.00
2017-12-25T09:43:32.971Z,8.00
2017-12-25T09:46:01.168Z,8.10
2017-12-25T09:48:28.607Z,8.00
2017-12-25T09:50:56.039Z,8.10
2017-12-25T09:53:24.244Z,8.10
2017-12-25T09:55:51.679Z,8.10
2017-12-25T09:58:19.878Z,8.20
2017-12-25T10:00:47.315Z,8.20
2017-12-25T10:03:15.519Z,8.20
2017-12-25T10:05:42.950Z,8.20
2017-12-25T10:08:10.392Z,8.20
2017-12-25T10:10:38.595Z,8.20
2017-12-25T10:13:06.031Z,8.20
2017-12-25T10:15:34.232Z,8.20
2017-12-25T10:18:01.675Z,8.20
2017-12-25T10:20:29.109Z,8.20
2017-12-25T10:22:57.320Z,8.20
2017-12-25T10:25:24.765Z,8.30
2017-12-25T10:27:52.210Z,8.30
2017-12-25T10:30:20.424Z,8.30
2017-12-25T10:32:47.894Z,8.30
2017-12-25T10:35:15.348Z,8.30
2017-12-25T10:37:42.793Z,8.30
2017-12-25T10:40:10.245Z,8.30
2017-12-25T10:42:37.688Z,8.30
2017-12-25T10:45:05.116Z,8.30
2017-12-25T10:47:33.323Z,8.30
2017-12-25T10:50:00.776Z,8.30
2017-12-25T10:52:28.221Z,8.30
2017-12-25T10:54:55.650Z,8.30
2017-12-25T10:57:23.866Z,8.30
2017-12-25T10:59:51.299Z,8.30
2017-12-25T11:02:18.737Z,8.30
2017-12-25T11:04:46.934Z,8.30
2017-12-25T11:07:14.391Z,8.30
2017-12-25T11:09:41.840Z,8.20
2017-12-25T11:12:10.046Z,8.30
2017-12-25T11:14:37.505Z,8.30
2017-12-25T11:17:04.960Z,8.30
2017-12-25T11:19:32.400Z,8.20
2017-12-25T11:21:59.831Z,8.20
2017-12-25T11:24:28.038Z,8.20
2017-12-25T11:26:55.477Z,8.30
2017-12-25T11:29:23.724Z,8.30
2017-12-25T11:31:51.170Z,8.20
2017-12-25T11:34:18.615Z,8.30
2017-12-25T11:36:46.042Z,8.20
2017-12-25T11:39:13.502Z,8.30
2017-12-25T11:41:40.932Z,8.30
2017-12-25T11:44:08.411Z,8.30
2017-12-25T11:46:35.827Z,8.20
2017-12-25T11:49:04.103Z,8.30
2017-12-25T11:51:32.371Z,8.20
2017-12-25T11:53:59.796Z,8.30
2017-12-25T11:56:27.227Z,8.20
2017-12-25T11:58:54.664Z,8.30
2017-12-25T12:01:22.107Z,8.30
2017-12-25T12:03:50.314Z,8.30
2017-12-25T12:06:17.747Z,8.30
2017-12-25T12:08:45.967Z,8.20
2017-12-25T12:11:13.403Z,8.30
2017-12-25T12:13:40.842Z,8.20
2017-12-25T12:16:08.279Z,8.20
2017-12-25T12:18:36.484Z,8.20
2017-12-25T12:21:03.920Z,8.20
2017-12-25T12:23:32.127Z,8.10
2017-12-25T12:25:59.571Z,8.10
2017-12-25T12:28:27.007Z,8.10
2017-12-25T12:30:54.447Z,8.10
2017-12-25T12:33:22.310Z,8.10
2017-12-25T12:35:49.727Z,8.20
2017-12-25T12:38:17.174Z,8.20
2017-12-25T12:40:44.622Z,8.10
2017-12-25T12:43:12.069Z,8.10
2017-12-25T12:45:39.509Z,8.10
2017-12-25T12:48:07.710Z,8.10
2017-12-25T12:50:35.142Z,8.10
2017-12-25T12:53:02.599Z,8.10
2017-12-25T12:55:30.054Z,8.10
2017-12-25T12:57:58.264Z,8.10
2017-12-25T13:00:25.724Z,8.10
2017-12-25T13:02:53.138Z,8.10
2017-12-25T13:05:20.575Z,8.10
2017-12-25T13:07:48.040Z,8.10
2017-12-25T13:10:16.252Z,8.00
2017-12-25T13:12:43.713Z,8.00
2017-12-25T13:15:11.181Z,8.10
2017-12-25T13:17:38.619Z,8.10
2017-12-25T13:20:06.063Z,8.10
2017-12-25T13:22:33.516Z,8.00
2017-12-25T13:25:01.715Z,8.10
2017-12-25T13:27:29.148Z,8.10
2017-12-25T13:29:56.597Z,8.00
2017-12-25T13:32:24.786Z,8.10
2017-12-25T13:34:52.243Z,8.10
2017-12-25T13:37:19.666Z,8.10
2017-12-25T13:39:47.109Z,8.20
2017-12-25T13:42:14.547Z,8.20
2017-12-25T13:44:41.987Z,8.20
2017-12-25T13:47:09.439Z,8.10
2017-12-25T13:49:36.906Z,8.20
2017-12-25T13:52:04.339Z,8.20
2017-12-25T13:54:31.782Z,8.10
2017-12-25T13:56:59.222Z,8.10
2017-12-25T13:59:27.452Z,8.10
2017-12-25T14:01:54.914Z,8.10
2017-12-25T14:04:22.395Z,8.00
2017-12-25T14:06:49.831Z,8.00
2017-12-25T14:09:17.274Z,8.00
2017-12-25T14:11:44.757Z,8.00
2017-12-25T14:14:12.203Z,8.00
2017-12-25T14:16:39.642Z,8.00
2017-12-25T14:19:07.079Z,8.10
2017-12-25T14:21:35.290Z,8.10
2017-12-25T14:24:02.736Z,8.10
2017-12-25T14:26:30.168Z,8.10
2017-12-25T14:28:57.647Z,8.10
2017-12-25T14:31:25.078Z,8.10
2017-12-25T14:33:52.575Z,8.00
2017-12-25T14:36:20.008Z,8.10
2017-12-25T14:38:47.492Z,8.10
2017-12-25T14:41:14.958Z,8.00
2017-12-25T14:43:42.402Z,8.00
2017-12-25T14:46:09.901Z,8.00
2017-12-25T14:48:37.323Z,7.90
2017-12-25T14:51:04.781Z,8.00
2017-12-25T14:53:33.008Z,7.90
2017-12-25T14:56:00.447Z,7.90
2017-12-25T14:58:28.688Z,8.00
2017-12-25T15:00:56.130Z,8.00
2017-12-25T15:03:24.323Z,8.00
2017-12-25T15:05:51.746Z,7.90
2017-12-25T15:08:19.203Z,8.00
2017-12-25T15:10:46.639Z,8.00
2017-12-25T15:13:14.083Z,8.00
2017-12-25T15:15:42.279Z,7.90
2017-12-25T15:18:09.721Z,7.90
2017-12-25T15:20:37.154Z,7.90
2017-12-25T15:23:05.376Z,7.80
2017-12-25T15:25:32.832Z,7.80
2017-12-25T15:28:00.381Z,7.80
2017-12-25T15:30:27.839Z,7.80
2017-12-25T15:32:55.279Z,7.90
2017-12-25T15:35:22.724Z,7.80
2017-12-25T15:37:50.926Z,7.80
2017-12-25T15:40:18.358Z,7.80
2017-12-25T15:42:45.801Z,7.80
2017-12-25T15:45:13.231Z,7.80
2017-12-25T15:47:40.700Z,7.80
2017-12-25T15:50:08.143Z,7.80
2017-12-25T15:52:35.588Z,7.70
2017-12-25T15:55:03.069Z,7.70
2017-12-25T15:57:30.500Z,7.70
2017-12-25T15:59:57.944Z,7.70
2017-12-25T16:02:25.382Z,7.70
2017-12-25T16:04:52.817Z,7.70
2017-12-25T16:07:21.015Z,7.70
2017-12-25T16:09:48.459Z,7.70
2017-12-25T16:12:15.887Z,7.70
2017-12-25T16:14:43.342Z,7.70
2017-12-25T16:17:10.828Z,7.60
2017-12-25T16:19:38.227Z,7.60
2017-12-25T16:22:05.666Z,7.70
2017-12-25T16:24:33.153Z,7.60
2017-12-25T16:27:00.581Z,7.60
2017-12-25T16:29:28.030Z,7.70
2017-12-25T16:31:55.526Z,7.70
2017-12-25T16:34:22.966Z,7.60
2017-12-25T16:36:50.398Z,7.70
2017-12-25T16:39:17.867Z,7.60
2017-12-25T16:41:45.299Z,7.60
2017-12-25T16:44:12.744Z,7.60
2017-12-25T16:46:40.952Z,7.60
2017-12-25T16:49:08.387Z,7.60
2017-12-25T16:51:35.830Z,7.60
2017-12-25T16:54:03.267Z,7.50
2017-12-25T16:56:30.923Z,7.50
2017-12-25T16:58:59.227Z,7.50
2017-12-25T17:01:26.675Z,7.50
2017-12-25T17:03:54.878Z,7.50
2017-12-25T17:06:22.355Z,7.60
2017-12-25T17:08:49.806Z,7.60
2017-12-25T17:11:17.840Z,7.50
2017-12-25T17:16:48.816Z,7.50
2017-12-25T17:19:17.030Z,7.50
2017-12-25T17:21:45.374Z,7.50
2017-12-25T17:24:12.813Z,7.50
2017-12-25T17:26:41.032Z,7.50
2017-12-25T17:29:08.462Z,7.50
2017-12-25T17:31:35.890Z,7.60
2017-12-25T17:34:03.335Z,7.50
2017-12-25T17:36:32.266Z,7.50
2017-12-25T17:39:00.017Z,7.50
2017-12-25T17:41:27.452Z,7.50
2017-12-25T17:43:54.887Z,7.50
2017-12-25T17:46:22.346Z,7.50
2017-12-25T17:48:49.777Z,7.60
2017-12-25T17:51:17.215Z,7.60
2017-12-25T17:53:44.652Z,7.60
2017-12-25T17:56:12.883Z,7.60
2017-12-25T17:58:40.327Z,7.60
2017-12-25T18:01:07.771Z,7.50
2017-12-25T18:03:35.195Z,7.50
2017-12-25T18:06:03.404Z,7.40
2017-12-25T18:08:30.839Z,7.40
2017-12-25T18:10:58.301Z,7.30
2017-12-25T18:13:25.743Z,7.30
2017-12-25T18:15:53.468Z,7.30
2017-12-25T18:18:20.917Z,7.30
2017-12-25T18:20:48.423Z,7.10
2017-12-25T18:23:16.641Z,7.10
2017-12-25T18:25:44.086Z,7.10
2017-12-25T18:28:11.522Z,7.00
2017-12-25T18:30:38.971Z,7.10
2017-12-25T18:33:07.174Z,7.00
2017-12-25T18:35:34.646Z,7.00
2017-12-25T18:38:02.085Z,7.00
2017-12-25T18:40:29.531Z,7.00
2017-12-25T18:42:56.958Z,6.90
2017-12-25T18:45:25.162Z,6.90
2017-12-25T18:47:52.591Z,6.90
2017-12-25T18:50:20.818Z,6.90
2017-12-25T18:52:48.252Z,6.90
2017-12-25T18:55:15.688Z,6.90
2017-12-25T18:57:43.968Z,6.90
2017-12-25T19:00:12.159Z,6.90
2017-12-25T19:02:39.610Z,6.80
2017-12-25T19:05:07.085Z,6.80
2017-12-25T19:07:34.594Z,6.80
2017-12-25T19:10:01.998Z,6.80
2017-12-25T19:12:29.462Z,6.80
2017-12-25T19:14:56.898Z,6.80
2017-12-25T19:17:24.337Z,6.80
2017-12-25T19:19:52.561Z,6.80
2017-12-25T19:22:20.051Z,6.80
2017-12-25T19:24:47.503Z,6.80
2017-12-25T19:27:14.930Z,6.70
2017-12-25T19:29:42.394Z,6.70
2017-12-25T19:32:09.834Z,6.70
2017-12-25T19:34:37.294Z,6.70
2017-12-25T19:37:04.743Z,6.70
2017-12-25T19:39:32.206Z,6.60
2017-12-25T19:41:59.671Z,6.70
2017-12-25T19:44:27.103Z,6.60
2017-12-25T19:46:54.545Z,6.60
2017-12-25T19:49:22.737Z,6.60
2017-12-25T19:51:50.192Z,6.60
2017-12-25T19:54:17.626Z,6.50
2017-12-25T19:56:45.835Z,6.50
2017-12-25T19:59:13.266Z,6.50
2017-12-25T20:01:41.502Z,6.50
2017-12-25T20:04:08.923Z,6.50
2017-12-25T20:06:36.383Z,6.50
2017-12-25T20:09:03.864Z,6.50
2017-12-25T20:11:31.311Z,6.40
2017-12-25T20:13:58.757Z,6.40
2017-12-25T20:16:26.227Z,6.40
2017-12-25T20:18:53.674Z,6.40
2017-12-25T20:21:21.113Z,6.40
2017-12-25T20:23:48.546Z,6.40
2017-12-25T20:26:16.771Z,6.30
2017-12-25T20:28:44.207Z,6.30
2017-12-25T20:31:11.667Z,6.30
2017-12-25T20:33:39.116Z,6.30
2017-12-25T20:36:06.559Z,6.30
2017-12-25T20:38:33.982Z,6.20
2017-12-25T20:41:01.440Z,6.20
2017-12-25T20:43:28.915Z,6.20
2017-12-25T20:45:56.343Z,6.20
2017-12-25T20:48:23.803Z,6.10
2017-12-25T20:50:51.278Z,6.10
2017-12-25T20:53:18.727Z,6.10
2017-12-25T20:55:46.171Z,6.10
2017-12-25T20:58:13.616Z,6.10
2017-12-25T21:00:41.103Z,6.00
2017-12-25T21:03:09.294Z,6.00
2017-12-25T21:05:37.556Z,5.90
2017-12-25T21:08:04.995Z,5.90
2017-12-25T21:10:32.455Z,6.00
2017-12-25T21:12:59.918Z,6.00
2017-12-25T21:15:27.389Z,5.90
2017-12-25T21:17:55.586Z,6.00
2017-12-25T21:20:23.806Z,6.00
2017-12-25T21:22:51.243Z,6.00
2017-12-25T21:25:18.725Z,5.90
2017-12-25T21:27:46.173Z,5.90
2017-12-25T21:30:13.634Z,5.90
2017-12-25T21:32:41.060Z,5.90
2017-12-25T21:35:08.543Z,5.90
2017-12-25T21:37:35.986Z,5.90
2017-12-25T21:40:03.423Z,5.90
2017-12-25T21:42:30.858Z,5.90
2017-12-25T21:44:59.071Z,5.80
2017-12-25T21:47:26.516Z,5.80
2017-12-25T21:49:53.943Z,5.80
2017-12-25T21:52:22.170Z,5.90
2017-12-25T21:54:49.624Z,5.80
2017-12-25T21:57:17.064Z,5.80
2017-12-25T21:59:44.499Z,5.80
2017-12-25T22:02:11.936Z,5.90
2017-12-25T22:04:39.374Z,5.80
2017-12-25T22:07:06.846Z,5.90
2017-12-25T22:09:35.042Z,5.80
2017-12-25T22:12:02.566Z,5.80
2017-12-25T22:14:30.011Z,5.90
2017-12-25T22:16:57.458Z,5.80
2017-12-25T22:19:24.891Z,5.80
2017-12-25T22:21:52.334Z,5.80
2017-12-25T22:24:19.778Z,5.80
2017-12-25T22:26:48.002Z,5.80
2017-12-25T22:29:15.430Z,5.80
2017-12-25T22:31:43.059Z,5.90
2017-12-25T22:34:11.256Z,5.90
2017-12-25T22:36:38.699Z,5.90
2017-12-25T22:39:06.926Z,5.90
2017-12-25T22:41:34.387Z,5.90
2017-12-25T22:44:01.846Z,5.90
2017-12-25T22:46:29.365Z,5.90
2017-12-25T22:48:56.795Z,5.90
2017-12-25T22:51:24.227Z,5.90
2017-12-25T22:53:51.682Z,5.90
2017-12-25T22:56:19.146Z,5.90
2017-12-25T22:58:46.582Z,5.80
2017-12-25T23:01:14.026Z,5.80
2017-12-25T23:03:41.460Z,5.80
2017-12-25T23:06:08.903Z,5.80
2017-12-25T23:08:37.125Z,5.80
2017-12-25T23:11:04.579Z,5.80
2017-12-25T23:13:32.027Z,5.80
2017-12-25T23:15:59.507Z,5.80
2017-12-25T23:18:26.942Z,5.70
2017-12-25T23:20:54.402Z,5.80
2017-12-25T23:23:21.835Z,5.80
2017-12-25T23:25:49.279Z,5.80
2017-12-25T23:28:17.474Z,5.70
2017-12-25T23:30:44.930Z,5.70
2017-12-25T23:33:12.363Z,5.70
2017-12-25T23:35:40.568Z,5.70
2017-12-25T23:38:07.994Z,5.70
2017-12-25T23:40:36.207Z,5.70
2017-12-25T23:43:03.649Z,5.70
2017-12-25T23:45:31.079Z,5.70
2017-12-25T23:47:59.287Z,5.70
2017-12-25T23:50:26.719Z,5.70
2017-12-25T23:52:54.934Z,5.70
2017-12-25T23:55:22.350Z,5.70
2017-12-25T23:57:50.563Z,5.60
